sensor_id;sensor_type;location;lat;lon;timestamp;pressure;altitude;pressure_sealevel;temperature;humidity
18527;BME280;9393;42.158;24.748;2023-11-21T00:01:46;99377.03;;;12.17;58.39
18527;BME280;9393;42.158;24.748;2023-11-21T00:04:50;99388.66;;;12.22;58.33
18527;BME280;9393;42.158;24.748;2023-11-21T00:07:55;99378.63;;;12.09;58.55
18527;BME280;9393;42.158;24.748;2023-11-21T00:11:01;99384.91;;;12.25;58.01
18527;BME280;9393;42.158;24.748;2023-11-21T00:14:05;99382.03;;;12.36;57.56
18527;BME280;9393;42.158;24.748;2023-11-21T00:17:10;99385.97;;;12.06;58.33
18527;BME280;9393;42.158;24.748;2023-11-21T00:20:15;99384.41;;;12.21;58.00
18527;BME280;9393;42.158;24.748;2023-11-21T00:23:19;99381.56;;;12.48;57.17
18527;BME280;9393;42.158;24.748;2023-11-21T00:26:25;99381.72;;;12.39;57.38
18527;BME280;9393;42.158;24.748;2023-11-21T00:29:36;99374.38;;;12.42;57.39
18527;BME280;9393;42.158;24.748;2023-11-21T00:32:41;99385.38;;;12.54;56.86
18527;BME280;9393;42.158;24.748;2023-11-21T00:35:46;99375.56;;;12.48;57.10
18527;BME280;9393;42.158;24.748;2023-11-21T00:38:51;99370.09;;;12.41;57.47
18527;BME280;9393;42.158;24.748;2023-11-21T00:41:56;99373.22;;;12.37;57.84
18527;BME280;9393;42.158;24.748;2023-11-21T00:45:01;99370.91;;;12.34;57.91
18527;BME280;9393;42.158;24.748;2023-11-21T00:48:06;99380.03;;;12.30;58.17
18527;BME280;9393;42.158;24.748;2023-11-21T00:51:11;99384.69;;;12.10;58.79
18527;BME280;9393;42.158;24.748;2023-11-21T00:54:15;99391.19;;;12.06;59.16
18527;BME280;9393;42.158;24.748;2023-11-21T00:57:21;99385.41;;;11.94;59.61
18527;BME280;9393;42.158;24.748;2023-11-21T01:00:25;99384.75;;;11.92;59.65
18527;BME280;9393;42.158;24.748;2023-11-21T01:03:29;99384.88;;;11.91;59.63
18527;BME280;9393;42.158;24.748;2023-11-21T01:06:34;99381.09;;;11.85;59.99
18527;BME280;9393;42.158;24.748;2023-11-21T01:09:38;99384.03;;;11.82;60.11
18527;BME280;9393;42.158;24.748;2023-11-21T01:12:44;99381.19;;;11.76;60.18
18527;BME280;9393;42.158;24.748;2023-11-21T01:15:48;99381.22;;;11.58;60.88
18527;BME280;9393;42.158;24.748;2023-11-21T01:18:52;99383.22;;;11.64;60.47
18527;BME280;9393;42.158;24.748;2023-11-21T01:21:56;99382.00;;;11.58;60.66
18527;BME280;9393;42.158;24.748;2023-11-21T01:25:01;99378.56;;;11.76;59.82
18527;BME280;9393;42.158;24.748;2023-11-21T01:28:09;99374.09;;;11.86;59.41
18527;BME280;9393;42.158;24.748;2023-11-21T01:31:13;99378.06;;;11.98;59.09
18527;BME280;9393;42.158;24.748;2023-11-21T01:34:18;99370.38;;;11.96;59.17
18527;BME280;9393;42.158;24.748;2023-11-21T01:37:23;99378.44;;;12.03;59.00
18527;BME280;9393;42.158;24.748;2023-11-21T01:40:30;99377.94;;;11.99;58.89
18527;BME280;9393;42.158;24.748;2023-11-21T01:43:36;99381.03;;;11.77;59.69
18527;BME280;9393;42.158;24.748;2023-11-21T01:46:40;99375.06;;;11.67;60.76
18527;BME280;9393;42.158;24.748;2023-11-21T01:49:45;99367.97;;;11.34;61.61
18527;BME280;9393;42.158;24.748;2023-11-21T01:52:51;99373.81;;;11.53;60.65
18527;BME280;9393;42.158;24.748;2023-11-21T01:55:57;99364.81;;;11.48;60.63
18527;BME280;9393;42.158;24.748;2023-11-21T01:59:04;99371.00;;;11.47;60.56
18527;BME280;9393;42.158;24.748;2023-11-21T02:02:09;99369.75;;;11.33;60.93
18527;BME280;9393;42.158;24.748;2023-11-21T02:05:16;99364.00;;;10.94;61.81
18527;BME280;9393;42.158;24.748;2023-11-21T02:08:20;99363.91;;;10.86;61.91
18527;BME280;9393;42.158;24.748;2023-11-21T02:11:25;99359.00;;;10.83;62.10
18527;BME280;9393;42.158;24.748;2023-11-21T02:14:31;99353.91;;;10.64;62.96
18527;BME280;9393;42.158;24.748;2023-11-21T02:17:36;99356.75;;;10.71;62.64
18527;BME280;9393;42.158;24.748;2023-11-21T02:20:40;99360.47;;;10.68;62.39
18527;BME280;9393;42.158;24.748;2023-11-21T02:23:46;99364.66;;;10.34;63.79
18527;BME280;9393;42.158;24.748;2023-11-21T02:26:51;99372.66;;;10.13;64.34
18527;BME280;9393;42.158;24.748;2023-11-21T02:29:55;99369.34;;;10.11;64.33
18527;BME280;9393;42.158;24.748;2023-11-21T02:33:00;99376.16;;;9.85;65.66
18527;BME280;9393;42.158;24.748;2023-11-21T02:36:06;99377.28;;;10.29;63.62
18527;BME280;9393;42.158;24.748;2023-11-21T02:39:12;99364.94;;;10.58;62.85
18527;BME280;9393;42.158;24.748;2023-11-21T02:42:16;99368.59;;;10.83;62.19
18527;BME280;9393;42.158;24.748;2023-11-21T02:45:21;99364.94;;;10.58;63.09
18527;BME280;9393;42.158;24.748;2023-11-21T02:48:27;99372.81;;;10.66;62.94
18527;BME280;9393;42.158;24.748;2023-11-21T02:51:32;99376.50;;;10.46;63.58
18527;BME280;9393;42.158;24.748;2023-11-21T02:54:38;99367.72;;;10.47;63.58
18527;BME280;9393;42.158;24.748;2023-11-21T02:57:42;99372.41;;;10.43;63.67
18527;BME280;9393;42.158;24.748;2023-11-21T03:00:46;99376.16;;;10.58;63.18
18527;BME280;9393;42.158;24.748;2023-11-21T03:03:51;99374.47;;;10.67;63.30
18527;BME280;9393;42.158;24.748;2023-11-21T03:06:55;99375.38;;;10.48;63.93
18527;BME280;9393;42.158;24.748;2023-11-21T03:10:01;99384.19;;;10.47;64.01
18527;BME280;9393;42.158;24.748;2023-11-21T03:13:06;99376.84;;;10.60;63.40
18527;BME280;9393;42.158;24.748;2023-11-21T03:16:11;99381.91;;;10.89;62.01
18527;BME280;9393;42.158;24.748;2023-11-21T03:19:16;99377.19;;;10.75;62.93
18527;BME280;9393;42.158;24.748;2023-11-21T03:22:20;99372.03;;;10.83;62.53
18527;BME280;9393;42.158;24.748;2023-11-21T03:25:27;99369.72;;;10.80;62.80
18527;BME280;9393;42.158;24.748;2023-11-21T03:28:31;99372.91;;;10.74;62.93
18527;BME280;9393;42.158;24.748;2023-11-21T03:31:35;99376.59;;;10.81;62.86
18527;BME280;9393;42.158;24.748;2023-11-21T03:34:53;99377.69;;;10.96;62.11
18527;BME280;9393;42.158;24.748;2023-11-21T03:37:58;99382.13;;;10.04;65.51
18527;BME280;9393;42.158;24.748;2023-11-21T03:41:06;99374.97;;;10.53;64.29
18527;BME280;9393;42.158;24.748;2023-11-21T03:44:10;99381.56;;;10.75;63.47
18527;BME280;9393;42.158;24.748;2023-11-21T03:47:14;99371.72;;;10.69;63.58
18527;BME280;9393;42.158;24.748;2023-11-21T03:50:19;99383.22;;;10.93;62.65
18527;BME280;9393;42.158;24.748;2023-11-21T03:53:23;99383.59;;;10.98;62.51
18527;BME280;9393;42.158;24.748;2023-11-21T03:56:29;99375.97;;;10.70;63.64
18527;BME280;9393;42.158;24.748;2023-11-21T03:59:35;99384.22;;;11.10;62.19
18527;BME280;9393;42.158;24.748;2023-11-21T04:02:39;99396.91;;;11.23;62.02
18527;BME280;9393;42.158;24.748;2023-11-21T04:05:43;99404.94;;;11.29;61.89
18527;BME280;9393;42.158;24.748;2023-11-21T04:08:48;99399.94;;;11.18;62.33
18527;BME280;9393;42.158;24.748;2023-11-21T04:11:54;99381.81;;;10.99;62.81
18527;BME280;9393;42.158;24.748;2023-11-21T04:14:58;99397.91;;;10.94;63.16
18527;BME280;9393;42.158;24.748;2023-11-21T04:18:02;99393.66;;;11.11;62.33
18527;BME280;9393;42.158;24.748;2023-11-21T04:21:07;99388.53;;;11.01;62.74
18527;BME280;9393;42.158;24.748;2023-11-21T04:24:12;99385.09;;;11.01;62.85
18527;BME280;9393;42.158;24.748;2023-11-21T04:27:17;99385.38;;;10.80;63.73
18527;BME280;9393;42.158;24.748;2023-11-21T04:30:22;99400.00;;;10.36;65.50
18527;BME280;9393;42.158;24.748;2023-11-21T04:33:26;99399.00;;;10.74;65.24
18527;BME280;9393;42.158;24.748;2023-11-21T04:36:30;99414.75;;;10.82;65.43
18527;BME280;9393;42.158;24.748;2023-11-21T04:39:35;99412.63;;;10.68;65.69
18527;BME280;9393;42.158;24.748;2023-11-21T04:42:40;99404.47;;;10.07;67.92
18527;BME280;9393;42.158;24.748;2023-11-21T04:45:45;99405.97;;;10.09;67.08
18527;BME280;9393;42.158;24.748;2023-11-21T04:48:49;99403.19;;;10.30;66.25
18527;BME280;9393;42.158;24.748;2023-11-21T04:51:53;99405.13;;;10.28;66.07
18527;BME280;9393;42.158;24.748;2023-11-21T04:54:57;99411.09;;;10.48;65.60
18527;BME280;9393;42.158;24.748;2023-11-21T04:58:05;99411.72;;;10.23;65.99
18527;BME280;9393;42.158;24.748;2023-11-21T05:01:10;99404.34;;;10.45;64.79
18527;BME280;9393;42.158;24.748;2023-11-21T05:04:15;99399.13;;;10.45;64.49
18527;BME280;9393;42.158;24.748;2023-11-21T05:07:19;99395.50;;;10.29;64.95
18527;BME280;9393;42.158;24.748;2023-11-21T05:10:23;99391.19;;;10.00;65.74
18527;BME280;9393;42.158;24.748;2023-11-21T05:13:31;99406.47;;;10.32;64.50
18527;BME280;9393;42.158;24.748;2023-11-21T05:16:36;99408.59;;;10.19;64.42
18527;BME280;9393;42.158;24.748;2023-11-21T05:19:40;99415.03;;;10.52;63.08
18527;BME280;9393;42.158;24.748;2023-11-21T05:22:49;99413.69;;;10.75;62.41
18527;BME280;9393;42.158;24.748;2023-11-21T05:25:54;99416.31;;;10.75;62.33
18527;BME280;9393;42.158;24.748;2023-11-21T05:29:00;99425.69;;;10.58;62.88
18527;BME280;9393;42.158;24.748;2023-11-21T05:32:05;99421.84;;;10.62;62.56
18527;BME280;9393;42.158;24.748;2023-11-21T05:35:10;99413.47;;;10.59;62.77
18527;BME280;9393;42.158;24.748;2023-11-21T05:38:19;99426.97;;;10.54;63.13
18527;BME280;9393;42.158;24.748;2023-11-21T05:41:25;99422.06;;;10.51;63.16
18527;BME280;9393;42.158;24.748;2023-11-21T05:44:30;99426.03;;;10.46;63.25
18527;BME280;9393;42.158;24.748;2023-11-21T05:47:36;99426.31;;;10.43;63.26
18527;BME280;9393;42.158;24.748;2023-11-21T05:50:40;99428.69;;;10.36;63.37
18527;BME280;9393;42.158;24.748;2023-11-21T05:53:44;99426.88;;;10.46;62.81
18527;BME280;9393;42.158;24.748;2023-11-21T05:56:49;99420.69;;;10.47;63.05
18527;BME280;9393;42.158;24.748;2023-11-21T05:59:55;99413.41;;;10.51;63.43
18527;BME280;9393;42.158;24.748;2023-11-21T06:02:59;99411.66;;;10.69;62.83
18527;BME280;9393;42.158;24.748;2023-11-21T06:06:04;99422.97;;;11.05;62.13
18527;BME280;9393;42.158;24.748;2023-11-21T06:09:09;99426.50;;;11.31;61.32
18527;BME280;9393;42.158;24.748;2023-11-21T06:12:14;99430.00;;;11.57;60.66
18527;BME280;9393;42.158;24.748;2023-11-21T06:15:21;99427.06;;;11.96;60.94
18527;BME280;9393;42.158;24.748;2023-11-21T06:18:26;99426.84;;;12.15;58.93
18527;BME280;9393;42.158;24.748;2023-11-21T06:21:30;99435.66;;;12.14;59.91
18527;BME280;9393;42.158;24.748;2023-11-21T06:24:35;99438.13;;;12.15;60.72
18527;BME280;9393;42.158;24.748;2023-11-21T06:27:40;99439.16;;;12.23;59.26
18527;BME280;9393;42.158;24.748;2023-11-21T06:30:46;99427.88;;;12.56;57.75
18527;BME280;9393;42.158;24.748;2023-11-21T06:33:51;99424.84;;;12.69;57.99
18527;BME280;9393;42.158;24.748;2023-11-21T06:36:55;99428.84;;;12.47;58.79
18527;BME280;9393;42.158;24.748;2023-11-21T06:40:00;99429.41;;;12.07;59.09
18527;BME280;9393;42.158;24.748;2023-11-21T06:43:06;99435.06;;;12.20;58.80
18527;BME280;9393;42.158;24.748;2023-11-21T06:46:12;99432.91;;;12.15;58.62
18527;BME280;9393;42.158;24.748;2023-11-21T06:49:17;99432.28;;;12.22;58.26
18527;BME280;9393;42.158;24.748;2023-11-21T06:52:22;99429.53;;;12.23;58.67
18527;BME280;9393;42.158;24.748;2023-11-21T06:55:26;99424.50;;;12.30;58.34
18527;BME280;9393;42.158;24.748;2023-11-21T06:58:30;99423.44;;;12.48;57.58
18527;BME280;9393;42.158;24.748;2023-11-21T07:01:36;99425.06;;;12.49;57.50
18527;BME280;9393;42.158;24.748;2023-11-21T07:04:41;99432.38;;;12.38;57.53
18527;BME280;9393;42.158;24.748;2023-11-21T07:07:46;99437.00;;;12.94;56.62
18527;BME280;9393;42.158;24.748;2023-11-21T07:10:51;99440.97;;;12.98;55.79
18527;BME280;9393;42.158;24.748;2023-11-21T07:13:55;99445.66;;;12.78;56.12
18527;BME280;9393;42.158;24.748;2023-11-21T07:17:01;99443.63;;;12.64;56.36
18527;BME280;9393;42.158;24.748;2023-11-21T07:20:06;99448.22;;;12.70;56.13
18527;BME280;9393;42.158;24.748;2023-11-21T07:23:11;99444.75;;;12.61;56.21
18527;BME280;9393;42.158;24.748;2023-11-21T07:26:15;99444.06;;;12.51;56.57
18527;BME280;9393;42.158;24.748;2023-11-21T07:29:20;99435.22;;;12.52;56.19
18527;BME280;9393;42.158;24.748;2023-11-21T07:32:25;99430.50;;;12.56;56.26
18527;BME280;9393;42.158;24.748;2023-11-21T07:35:30;99434.00;;;12.73;55.91
18527;BME280;9393;42.158;24.748;2023-11-21T07:38:34;99430.13;;;12.85;55.75
18527;BME280;9393;42.158;24.748;2023-11-21T07:41:38;99435.34;;;13.27;54.50
18527;BME280;9393;42.158;24.748;2023-11-21T07:44:47;99433.38;;;13.93;53.71
18527;BME280;9393;42.158;24.748;2023-11-21T07:47:54;99438.91;;;14.31;52.14
18527;BME280;9393;42.158;24.748;2023-11-21T07:50:59;99445.66;;;14.72;51.50
18527;BME280;9393;42.158;24.748;2023-11-21T07:54:04;99448.72;;;14.45;51.60
18527;BME280;9393;42.158;24.748;2023-11-21T07:57:08;99452.59;;;15.04;50.77
18527;BME280;9393;42.158;24.748;2023-11-21T08:00:16;99445.81;;;15.63;49.48
18527;BME280;9393;42.158;24.748;2023-11-21T08:03:22;99441.91;;;15.82;49.11
18527;BME280;9393;42.158;24.748;2023-11-21T08:06:26;99439.69;;;16.08;48.16
18527;BME280;9393;42.158;24.748;2023-11-21T08:09:31;99438.81;;;15.78;48.41
18527;BME280;9393;42.158;24.748;2023-11-21T08:12:37;99448.88;;;15.52;48.88
18527;BME280;9393;42.158;24.748;2023-11-21T08:15:41;99444.50;;;16.04;48.09
18527;BME280;9393;42.158;24.748;2023-11-21T08:18:52;99434.09;;;16.40;47.31
18527;BME280;9393;42.158;24.748;2023-11-21T08:21:58;99441.00;;;16.27;47.84
18527;BME280;9393;42.158;24.748;2023-11-21T08:25:02;99443.50;;;16.93;46.12
18527;BME280;9393;42.158;24.748;2023-11-21T08:28:07;99431.22;;;17.15;45.89
18527;BME280;9393;42.158;24.748;2023-11-21T08:31:12;99433.31;;;17.41;45.21
18527;BME280;9393;42.158;24.748;2023-11-21T08:34:19;99428.81;;;17.56;45.31
18527;BME280;9393;42.158;24.748;2023-11-21T08:37:23;99425.84;;;16.73;46.29
18527;BME280;9393;42.158;24.748;2023-11-21T08:40:29;99424.34;;;17.21;46.04
18527;BME280;9393;42.158;24.748;2023-11-21T08:43:34;99419.72;;;17.86;44.17
18527;BME280;9393;42.158;24.748;2023-11-21T08:46:42;99421.25;;;17.95;44.14
18527;BME280;9393;42.158;24.748;2023-11-21T08:49:49;99417.44;;;18.39;43.50
18527;BME280;9393;42.158;24.748;2023-11-21T08:52:55;99400.59;;;18.40;42.51
18527;BME280;9393;42.158;24.748;2023-11-21T08:56:00;99401.91;;;18.50;42.50
18527;BME280;9393;42.158;24.748;2023-11-21T08:59:04;99398.16;;;18.38;42.00
18527;BME280;9393;42.158;24.748;2023-11-21T09:02:10;99390.13;;;17.91;42.94
18527;BME280;9393;42.158;24.748;2023-11-21T09:05:16;99384.81;;;17.84;42.89
18527;BME280;9393;42.158;24.748;2023-11-21T09:08:21;99384.69;;;17.92;43.03
18527;BME280;9393;42.158;24.748;2023-11-21T09:11:26;99374.03;;;18.13;42.60
18527;BME280;9393;42.158;24.748;2023-11-21T09:14:36;99371.78;;;18.10;42.96
18527;BME280;9393;42.158;24.748;2023-11-21T09:17:40;99370.94;;;18.03;42.85
18527;BME280;9393;42.158;24.748;2023-11-21T09:20:47;99362.81;;;17.49;43.78
18527;BME280;9393;42.158;24.748;2023-11-21T09:23:51;99348.19;;;17.47;43.63
18527;BME280;9393;42.158;24.748;2023-11-21T09:26:56;99352.09;;;18.06;42.69
18527;BME280;9393;42.158;24.748;2023-11-21T09:30:00;99347.91;;;18.18;42.72
18527;BME280;9393;42.158;24.748;2023-11-21T09:33:08;99344.84;;;17.87;42.84
18527;BME280;9393;42.158;24.748;2023-11-21T09:36:15;99341.72;;;17.71;43.07
18527;BME280;9393;42.158;24.748;2023-11-21T09:39:19;99335.78;;;17.41;43.76
18527;BME280;9393;42.158;24.748;2023-11-21T09:42:25;99340.28;;;17.68;43.39
18527;BME280;9393;42.158;24.748;2023-11-21T09:45:35;99325.31;;;17.26;44.52
18527;BME280;9393;42.158;24.748;2023-11-21T09:48:39;99324.00;;;17.15;44.00
18527;BME280;9393;42.158;24.748;2023-11-21T09:51:45;99329.44;;;16.93;44.57
18527;BME280;9393;42.158;24.748;2023-11-21T09:54:50;99323.09;;;16.87;44.63
18527;BME280;9393;42.158;24.748;2023-11-21T09:57:57;99317.56;;;17.03;44.57
18527;BME280;9393;42.158;24.748;2023-11-21T10:01:03;99307.19;;;17.16;44.65
18527;BME280;9393;42.158;24.748;2023-11-21T10:04:09;99302.28;;;17.41;43.68
18527;BME280;9393;42.158;24.748;2023-11-21T10:07:17;99299.22;;;17.59;43.46
18527;BME280;9393;42.158;24.748;2023-11-21T10:10:25;99289.91;;;17.63;43.25
18527;BME280;9393;42.158;24.748;2023-11-21T10:13:30;99277.50;;;17.57;43.37
18527;BME280;9393;42.158;24.748;2023-11-21T10:16:36;99267.66;;;17.72;43.13
18527;BME280;9393;42.158;24.748;2023-11-21T10:19:42;99263.31;;;17.92;42.96
18527;BME280;9393;42.158;24.748;2023-11-21T10:22:49;99265.81;;;18.07;42.52
18527;BME280;9393;42.158;24.748;2023-11-21T10:25:54;99265.47;;;18.16;42.36
18527;BME280;9393;42.158;24.748;2023-11-21T10:29:08;99262.19;;;18.14;42.25
18527;BME280;9393;42.158;24.748;2023-11-21T10:32:15;99258.84;;;18.40;42.04
18527;BME280;9393;42.158;24.748;2023-11-21T10:35:19;99260.13;;;18.51;41.21
18527;BME280;9393;42.158;24.748;2023-11-21T10:38:25;99249.28;;;18.33;41.78
18527;BME280;9393;42.158;24.748;2023-11-21T10:41:30;99258.03;;;17.86;42.35
18527;BME280;9393;42.158;24.748;2023-11-21T10:44:35;99249.19;;;18.67;41.56
18527;BME280;9393;42.158;24.748;2023-11-21T10:47:41;99246.00;;;18.31;41.71
18527;BME280;9393;42.158;24.748;2023-11-21T10:50:46;99243.84;;;18.00;41.94
18527;BME280;9393;42.158;24.748;2023-11-21T10:53:52;99230.78;;;17.79;41.89
18527;BME280;9393;42.158;24.748;2023-11-21T10:56:58;99227.88;;;17.39;42.72
18527;BME280;9393;42.158;24.748;2023-11-21T11:00:04;99228.94;;;16.89;43.54
18527;BME280;9393;42.158;24.748;2023-11-21T11:03:09;99227.06;;;17.11;43.06
18527;BME280;9393;42.158;24.748;2023-11-21T11:06:19;99223.38;;;17.05;43.48
18527;BME280;9393;42.158;24.748;2023-11-21T11:09:24;99215.91;;;17.37;42.99
18527;BME280;9393;42.158;24.748;2023-11-21T11:12:30;99207.72;;;17.25;43.51
18527;BME280;9393;42.158;24.748;2023-11-21T11:15:34;99202.25;;;17.27;43.41
18527;BME280;9393;42.158;24.748;2023-11-21T11:18:39;99207.31;;;17.00;43.94
18527;BME280;9393;42.158;24.748;2023-11-21T11:21:48;99188.66;;;16.95;44.27
18527;BME280;9393;42.158;24.748;2023-11-21T11:25:08;99178.19;;;16.81;44.87
18527;BME280;9393;42.158;24.748;2023-11-21T11:28:21;99177.69;;;16.92;44.65
18527;BME280;9393;42.158;24.748;2023-11-21T11:31:33;99161.00;;;16.85;44.75
18527;BME280;9393;42.158;24.748;2023-11-21T11:34:45;99132.31;;;16.47;45.53
18527;BME280;9393;42.158;24.748;2023-11-21T11:37:53;99122.63;;;16.27;45.83
18527;BME280;9393;42.158;24.748;2023-11-21T11:41:01;99104.03;;;16.13;46.34
18527;BME280;9393;42.158;24.748;2023-11-21T11:44:46;99089.81;;;15.87;46.80
18527;BME280;9393;42.158;24.748;2023-11-21T11:47:57;99099.75;;;15.70;47.42
18527;BME280;9393;42.158;24.748;2023-11-21T11:51:05;99100.25;;;15.80;47.29
18527;BME280;9393;42.158;24.748;2023-11-21T11:54:12;99101.53;;;15.84;47.20
18527;BME280;9393;42.158;24.748;2023-11-21T11:57:18;99085.75;;;15.84;47.15
18527;BME280;9393;42.158;24.748;2023-11-21T12:00:33;99072.00;;;15.82;47.18
18527;BME280;9393;42.158;24.748;2023-11-21T12:03:40;99066.88;;;15.95;47.15
18527;BME280;9393;42.158;24.748;2023-11-21T12:06:44;99072.72;;;15.97;47.27
18527;BME280;9393;42.158;24.748;2023-11-21T12:09:49;99076.88;;;15.85;47.48
18527;BME280;9393;42.158;24.748;2023-11-21T12:12:56;99080.44;;;15.78;47.52
18527;BME280;9393;42.158;24.748;2023-11-21T12:16:01;99083.16;;;15.70;47.55
18527;BME280;9393;42.158;24.748;2023-11-21T12:19:05;99085.91;;;15.17;49.19
18527;BME280;9393;42.158;24.748;2023-11-21T12:22:10;99074.50;;;15.54;48.37
18527;BME280;9393;42.158;24.748;2023-11-21T12:25:15;99066.13;;;15.65;48.22
18527;BME280;9393;42.158;24.748;2023-11-21T12:28:22;99083.59;;;15.73;48.08
18527;BME280;9393;42.158;24.748;2023-11-21T12:31:26;99092.16;;;15.60;48.41
18527;BME280;9393;42.158;24.748;2023-11-21T12:34:32;99104.47;;;15.75;48.21
18527;BME280;9393;42.158;24.748;2023-11-21T12:37:37;99100.28;;;15.65;48.28
18527;BME280;9393;42.158;24.748;2023-11-21T12:40:42;99082.72;;;15.66;48.45
18527;BME280;9393;42.158;24.748;2023-11-21T12:43:49;99085.09;;;15.46;48.87
18527;BME280;9393;42.158;24.748;2023-11-21T12:46:53;99081.88;;;15.80;48.34
18527;BME280;9393;42.158;24.748;2023-11-21T12:49:58;99080.38;;;15.92;48.27
18527;BME280;9393;42.158;24.748;2023-11-21T12:53:05;99068.19;;;16.06;48.10
18527;BME280;9393;42.158;24.748;2023-11-21T12:56:11;99065.53;;;15.49;49.30
18527;BME280;9393;42.158;24.748;2023-11-21T12:59:17;99059.53;;;15.55;49.21
18527;BME280;9393;42.158;24.748;2023-11-21T13:02:26;99056.28;;;15.53;49.52
18527;BME280;9393;42.158;24.748;2023-11-21T13:05:32;99063.00;;;15.77;49.01
18527;BME280;9393;42.158;24.748;2023-11-21T13:08:37;99064.88;;;15.83;48.37
18527;BME280;9393;42.158;24.748;2023-11-21T13:11:41;99066.22;;;15.93;48.32
18527;BME280;9393;42.158;24.748;2023-11-21T13:14:49;99062.13;;;15.70;49.09
18527;BME280;9393;42.158;24.748;2023-11-21T13:17:54;99055.53;;;15.95;48.34
18527;BME280;9393;42.158;24.748;2023-11-21T13:21:03;99058.38;;;16.00;48.30
18527;BME280;9393;42.158;24.748;2023-11-21T13:24:12;99058.72;;;16.11;48.21
18527;BME280;9393;42.158;24.748;2023-11-21T13:27:17;99073.44;;;16.27;47.93
18527;BME280;9393;42.158;24.748;2023-11-21T13:30:22;99071.81;;;16.05;48.25
18527;BME280;9393;42.158;24.748;2023-11-21T13:33:29;99073.06;;;15.88;48.79
18527;BME280;9393;42.158;24.748;2023-11-21T13:36:36;99069.50;;;16.16;48.22
18527;BME280;9393;42.158;24.748;2023-11-21T13:39:40;99079.00;;;16.17;47.94
18527;BME280;9393;42.158;24.748;2023-11-21T13:42:52;99080.13;;;16.30;48.03
18527;BME280;9393;42.158;24.748;2023-11-21T13:45:59;99073.56;;;16.19;47.79
18527;BME280;9393;42.158;24.748;2023-11-21T13:49:06;99079.81;;;16.18;47.88
18527;BME280;9393;42.158;24.748;2023-11-21T13:52:12;99081.06;;;16.22;47.66
18527;BME280;9393;42.158;24.748;2023-11-21T13:55:19;99075.25;;;16.27;47.43
18527;BME280;9393;42.158;24.748;2023-11-21T13:58:27;99077.75;;;16.13;47.79
18527;BME280;9393;42.158;24.748;2023-11-21T14:01:45;99069.22;;;16.11;48.05
18527;BME280;9393;42.158;24.748;2023-11-21T14:04:59;99076.50;;;16.09;47.99
18527;BME280;9393;42.158;24.748;2023-11-21T14:08:11;99078.38;;;16.15;47.88
18527;BME280;9393;42.158;24.748;2023-11-21T14:11:19;99072.47;;;16.13;47.75
18527;BME280;9393;42.158;24.748;2023-11-21T14:14:28;99078.25;;;16.02;48.18
18527;BME280;9393;42.158;24.748;2023-11-21T14:17:33;99085.28;;;15.95;48.43
18527;BME280;9393;42.158;24.748;2023-11-21T14:20:40;99080.94;;;15.88;48.57
18527;BME280;9393;42.158;24.748;2023-11-21T14:23:44;99072.34;;;15.79;49.05
18527;BME280;9393;42.158;24.748;2023-11-21T14:26:52;99081.69;;;15.82;49.49
18527;BME280;9393;42.158;24.748;2023-11-21T14:29:57;99083.22;;;15.76;49.54
18527;BME280;9393;42.158;24.748;2023-11-21T14:33:03;99072.25;;;15.51;49.99
18527;BME280;9393;42.158;24.748;2023-11-21T14:36:08;99066.78;;;15.53;50.13
18527;BME280;9393;42.158;24.748;2023-11-21T14:39:13;99074.59;;;15.61;50.07
18527;BME280;9393;42.158;24.748;2023-11-21T14:42:26;99070.69;;;15.57;49.98
18527;BME280;9393;42.158;24.748;2023-11-21T14:45:32;99074.06;;;15.51;50.08
18527;BME280;9393;42.158;24.748;2023-11-21T14:48:38;99070.69;;;15.42;50.38
18527;BME280;9393;42.158;24.748;2023-11-21T14:51:46;99074.75;;;15.45;50.50
18527;BME280;9393;42.158;24.748;2023-11-21T14:55:03;99056.09;;;15.40;50.54
18527;BME280;9393;42.158;24.748;2023-11-21T14:58:23;99065.88;;;15.31;50.74
18527;BME280;9393;42.158;24.748;2023-11-21T15:01:31;99067.16;;;15.21;51.68
18527;BME280;9393;42.158;24.748;2023-11-21T15:04:49;99069.44;;;15.24;51.33
18527;BME280;9393;42.158;24.748;2023-11-21T15:07:55;99068.88;;;15.13;51.81
18527;BME280;9393;42.158;24.748;2023-11-21T15:11:00;99063.47;;;15.00;52.07
18527;BME280;9393;42.158;24.748;2023-11-21T15:14:09;99063.44;;;14.56;53.25
18527;BME280;9393;42.158;24.748;2023-11-21T15:17:18;99060.88;;;14.86;52.64
18527;BME280;9393;42.158;24.748;2023-11-21T15:20:30;99069.72;;;14.85;52.92
18527;BME280;9393;42.158;24.748;2023-11-21T15:23:34;99062.00;;;14.83;52.71
18527;BME280;9393;42.158;24.748;2023-11-21T15:26:38;99065.38;;;14.77;53.06
18527;BME280;9393;42.158;24.748;2023-11-21T15:29:43;99072.06;;;14.65;53.66
18527;BME280;9393;42.158;24.748;2023-11-21T15:32:47;99066.00;;;14.64;53.71
18527;BME280;9393;42.158;24.748;2023-11-21T15:35:53;99059.63;;;14.59;54.09
18527;BME280;9393;42.158;24.748;2023-11-21T15:38:58;99053.50;;;14.66;53.60
18527;BME280;9393;42.158;24.748;2023-11-21T15:42:02;99059.19;;;14.70;53.86
18527;BME280;9393;42.158;24.748;2023-11-21T15:45:08;99051.06;;;14.65;53.91
18527;BME280;9393;42.158;24.748;2023-11-21T15:48:13;99047.34;;;14.59;54.54
18527;BME280;9393;42.158;24.748;2023-11-21T15:51:20;99043.25;;;14.57;54.63
18527;BME280;9393;42.158;24.748;2023-11-21T15:54:25;99040.50;;;14.36;56.20
18527;BME280;9393;42.158;24.748;2023-11-21T15:57:30;99042.97;;;14.52;55.44
18527;BME280;9393;42.158;24.748;2023-11-21T16:00:34;99034.41;;;13.98;57.30
18527;BME280;9393;42.158;24.748;2023-11-21T16:03:39;99040.75;;;14.03;57.31
18527;BME280;9393;42.158;24.748;2023-11-21T16:06:45;99044.72;;;13.99;57.66
18527;BME280;9393;42.158;24.748;2023-11-21T16:09:50;99041.09;;;14.00;57.62
18527;BME280;9393;42.158;24.748;2023-11-21T16:12:54;99044.41;;;13.94;58.32
18527;BME280;9393;42.158;24.748;2023-11-21T16:15:59;99040.00;;;13.72;59.24
18527;BME280;9393;42.158;24.748;2023-11-21T16:19:04;99034.69;;;13.57;59.42
18527;BME280;9393;42.158;24.748;2023-11-21T16:22:09;99038.38;;;13.71;58.95
18527;BME280;9393;42.158;24.748;2023-11-21T16:25:14;99034.09;;;13.93;58.60